Central City, Arkansas
Current Conditions -  °F | °C
As of 8:53 AM on Monday 22 Dec 2014 (Local Time) from KHOT Reporting Station
Overcast Overcast  
Wind Chill: 50°   Ceiling: 500
Heat Index: 50°   Visibility: 9mi
Dew Point: 48°   Wind: 6mph
Humidity: 93%   Direction: 170°S
Pressure: 29.71"   Gusts: NA
Location:  34.5331°N, 93.0035°W
Report Text: KHOT 221453Z AUTO 17005KT 9SM OVC005 10/09 A2971 RMK AO2 CIG 004V009 SLP057 60000 T01000089 56010
Loading
Personal Weather Stations






























Interactive Weather Map New forecast layout! Learn more

10-Day Weather Forecast

Advertisements
Track Severe Weather on mobile